Time;durP1;ratioP1;P1;durP2;ratioP2;P2;SDS_P1;SDS_P2;PMS_P1;PMS_P2;Temp;Humidity;BMP_temperature;BMP_pressure;BME280_temperature;BME280_humidity;BME280_pressure;Samples;Min_cycle;Max_cycle;Signal;HPM_P1;HPM_P2
2021/01/08 00:00:42;;;;;;;23.85;21.27;;;;;;;7.00;68.44;100230.88;4954459;28;98522;-66
2021/01/08 00:03:09;;;;;;;28.15;21.80;;;;;;;7.02;68.31;100229.06;4953192;28;96722;-65
2021/01/08 00:05:35;;;;;;;31.45;21.92;;;;;;;7.00;68.55;100228.28;4954384;28;98502;-65
2021/01/08 00:08:02;;;;;;;27.15;22.30;;;;;;;7.05;68.37;100228.97;4954923;28;98883;-65
2021/01/08 00:10:29;;;;;;;28.40;23.60;;;;;;;7.13;68.25;100228.69;4954502;28;96596;-66
2021/01/08 00:12:55;;;;;;;39.38;23.40;;;;;;;7.15;67.72;100230.31;4954680;28;96608;-66
2021/01/08 00:15:22;;;;;;;31.27;26.23;;;;;;;7.17;67.70;100223.34;4953009;28;98457;-66
2021/01/08 00:17:48;;;;;;;26.48;22.08;;;;;;;7.12;68.08;100211.44;4952753;28;98649;-66
2021/01/08 00:20:15;;;;;;;29.70;23.65;;;;;;;7.05;67.92;100211.66;4937049;28;96697;-65
2021/01/08 00:22:41;;;;;;;32.15;26.08;;;;;;;6.95;68.30;100210.31;4930252;28;96968;-66
2021/01/08 00:25:09;;;;;;;33.35;25.00;;;;;;;7.00;68.39;100217.91;4953165;28;98436;-66
2021/01/08 00:27:35;;;;;;;33.60;26.63;;;;;;;6.90;68.08;100211.38;4952177;28;98768;-66
2021/01/08 00:30:01;;;;;;;29.60;24.83;;;;;;;6.94;68.21;100207.78;4936127;28;96923;-66
2021/01/08 00:32:28;;;;;;;36.05;27.02;;;;;;;7.06;67.86;100205.56;4932425;28;96962;-66
2021/01/08 00:34:54;;;;;;;32.92;24.45;;;;;;;6.91;67.87;100205.28;4931854;28;98524;-67
2021/01/08 00:37:23;;;;;;;35.30;26.30;;;;;;;6.92;68.25;100201.78;4933148;28;98778;-66
2021/01/08 00:39:49;;;;;;;30.42;25.95;;;;;;;6.97;67.90;100205.91;4915896;28;96713;-66
2021/01/08 00:42:16;;;;;;;31.25;25.02;;;;;;;7.02;67.66;100201.41;4932561;28;96865;-66
2021/01/08 00:44:43;;;;;;;32.33;24.13;;;;;;;7.03;67.42;100197.94;4932241;28;98743;-67
2021/01/08 00:47:09;;;;;;;32.95;25.20;;;;;;;6.93;67.35;100193.13;4948173;28;98449;-67
2021/01/08 00:49:36;;;;;;;29.67;23.10;;;;;;;6.84;67.69;100191.69;4951588;28;96916;-67
2021/01/08 00:52:03;;;;;;;29.00;23.88;;;;;;;6.89;67.47;100184.59;4943976;28;96776;-67
2021/01/08 00:54:30;;;;;;;32.38;23.38;;;;;;;6.90;67.49;100182.88;4933110;28;98529;-67
2021/01/08 00:57:14;;;;;;;28.88;23.25;;;;;;;6.87;67.33;100181.25;4919493;28;98649;-65
2021/01/08 00:59:41;;;;;;;26.00;22.60;;;;;;;6.80;67.74;100180.59;4919482;28;96565;-67
2021/01/08 01:02:07;;;;;;;25.65;20.48;;;;;;;6.97;66.96;100185.16;4948511;28;96734;-67
2021/01/08 01:04:34;;;;;;;24.70;21.02;;;;;;;6.95;67.27;100186.13;4932204;28;98516;-67
2021/01/08 01:07:00;;;;;;;27.88;20.90;;;;;;;6.94;67.41;100192.22;4932299;28;98592;-67
2021/01/08 01:09:26;;;;;;;25.13;22.45;;;;;;;6.94;67.25;100184.44;4936376;28;96537;-66
2021/01/08 01:11:52;;;;;;;23.98;19.80;;;;;;;6.89;67.08;100187.19;4933270;28;96706;-67
2021/01/08 01:14:19;;;;;;;25.15;20.40;;;;;;;6.99;67.12;100185.13;4933306;28;98826;-67
2021/01/08 01:16:45;;;;;;;26.10;21.33;;;;;;;6.97;67.24;100168.78;4948445;28;99729;-67
2021/01/08 01:19:12;;;;;;;23.58;20.48;;;;;;;6.89;67.31;100178.59;4951941;28;97676;-67
2021/01/08 01:21:38;;;;;;;26.73;21.10;;;;;;;6.90;67.36;100175.09;4935689;28;98084;-65
2021/01/08 01:24:05;;;;;;;26.30;20.58;;;;;;;6.86;66.93;100171.75;4939941;28;98419;-67
2021/01/08 01:26:32;;;;;;;21.42;18.83;;;;;;;6.87;67.24;100175.19;4950551;28;98996;-66
2021/01/08 01:28:59;;;;;;;22.05;18.23;;;;;;;7.01;66.64;100183.31;4917035;28;96869;-66
2021/01/08 01:31:25;;;;;;;22.92;20.42;;;;;;;6.97;66.56;100171.38;4933059;28;96710;-66
2021/01/08 01:33:52;;;;;;;23.08;19.45;;;;;;;6.88;66.84;100166.53;4932096;28;98608;-67
2021/01/08 01:36:19;;;;;;;29.52;19.98;;;;;;;6.83;66.97;100169.28;4951175;28;98492;-66
2021/01/08 01:38:45;;;;;;;22.40;18.80;;;;;;;6.79;66.56;100170.28;4932343;28;96875;-67
2021/01/08 01:41:12;;;;;;;22.67;20.30;;;;;;;6.66;67.22;100167.31;4933197;28;97018;-67
2021/01/08 01:43:38;;;;;;;21.58;18.33;;;;;;;6.73;67.00;100171.34;4950966;28;98814;-66
2021/01/08 01:46:04;;;;;;;22.65;18.67;;;;;;;6.76;67.08;100171.22;4936573;28;98653;-66
2021/01/08 01:48:31;;;;;;;23.13;19.88;;;;;;;6.74;66.89;100172.19;4899502;28;96678;-66
2021/01/08 01:50:57;;;;;;;22.95;19.25;;;;;;;6.71;66.93;100165.41;4931554;28;96784;-66
2021/01/08 01:53:24;;;;;;;22.25;18.92;;;;;;;6.81;66.65;100177.09;4935855;28;98669;-65
2021/01/08 01:55:50;;;;;;;23.42;19.25;;;;;;;6.57;67.36;100170.19;4933026;28;98598;-66
2021/01/08 01:58:17;;;;;;;28.40;21.15;;;;;;;6.69;67.45;100171.50;4920576;28;96559;-66
2021/01/08 02:00:43;;;;;;;22.33;19.67;;;;;;;6.70;66.97;100174.03;4942572;28;96691;-66
2021/01/08 02:03:34;;;;;;;23.90;20.02;;;;;;;6.56;66.82;100165.94;4935230;28;98476;-67
2021/01/08 02:06:03;;;;;;;21.90;19.65;;;;;;;6.76;66.94;100163.44;4906545;28;98686;-67
2021/01/08 02:08:30;;;;;;;26.80;20.98;;;;;;;6.82;66.30;100172.78;4955248;28;96977;-66
2021/01/08 02:11:04;;;;;;;27.23;23.15;;;;;;;6.56;66.85;100173.69;4954603;28;97049;-66
2021/01/08 02:13:41;;;;;;;27.27;21.30;;;;;;;6.62;67.16;100170.88;4922573;28;98825;-66
2021/01/08 02:16:10;;;;;;;26.50;21.50;;;;;;;6.66;67.03;100177.66;4954504;28;98447;-66
2021/01/08 02:18:36;;;;;;;27.88;22.42;;;;;;;6.75;66.58;100171.28;4922068;28;96601;-66
2021/01/08 02:21:08;;;;;;;29.75;24.10;;;;;;;6.59;67.22;100167.53;4920637;28;96740;-66
2021/01/08 02:23:47;;;;;;;31.05;24.45;;;;;;;6.71;67.04;100165.41;4938083;28;97378;-66
2021/01/08 02:26:14;;;;;;;26.20;22.13;;;;;;;6.83;66.07;100166.69;4939283;28;99031;-66
2021/01/08 02:28:42;;;;;;;28.48;22.67;;;;;;;6.83;66.12;100170.13;4939310;28;96684;-66
2021/01/08 02:31:08;;;;;;;29.20;23.88;;;;;;;6.84;66.28;100168.38;4923891;28;96599;-66
2021/01/08 02:33:35;;;;;;;30.50;26.27;;;;;;;6.60;67.08;100167.47;4935313;28;98620;-66
2021/01/08 02:36:01;;;;;;;27.55;23.55;;;;;;;6.71;66.43;100172.28;4955067;28;98580;-66
2021/01/08 02:38:27;;;;;;;34.85;24.45;;;;;;;6.63;66.62;100171.72;4952780;28;97549;-66
2021/01/08 02:40:54;;;;;;;30.58;24.60;;;;;;;6.74;66.11;100169.59;4937185;28;96644;-66
2021/01/08 02:43:25;;;;;;;32.03;26.85;;;;;;;6.75;66.41;100179.06;4930419;28;98462;-65
2021/01/08 02:45:51;;;;;;;29.58;24.65;;;;;;;6.56;66.90;100177.13;4917371;28;98765;-66
2021/01/08 02:48:18;;;;;;;31.88;25.83;;;;;;;6.49;67.27;100175.63;4934972;28;97218;-65
2021/01/08 02:50:45;;;;;;;27.65;24.30;;;;;;;6.62;66.74;100170.88;4934750;28;96677;-66
2021/01/08 02:53:15;;;;;;;31.15;25.63;;;;;;;6.51;66.83;100173.84;4937819;28;99206;-66
2021/01/08 02:55:48;;;;;;;29.48;23.92;;;;;;;6.61;66.71;100178.72;4937071;28;98638;-66
2021/01/08 02:58:15;;;;;;;29.65;23.45;;;;;;;6.55;66.73;100175.44;4934381;28;96967;-65
2021/01/08 03:00:41;;;;;;;32.03;26.45;;;;;;;6.57;66.67;100173.63;4935194;28;97370;-65
2021/01/08 03:03:08;;;;;;;27.02;22.65;;;;;;;6.65;66.08;100167.31;4917017;28;98588;-66
2021/01/08 03:05:34;;;;;;;29.65;23.27;;;;;;;6.41;67.04;100166.44;4916594;28;98438;-66
2021/01/08 03:08:01;;;;;;;32.22;25.58;;;;;;;6.51;66.05;100165.25;4902182;28;96903;-67
2021/01/08 03:10:27;;;;;;;31.65;26.02;;;;;;;6.65;65.64;100168.16;4928915;28;97269;-66
2021/01/08 03:12:59;;;;;;;30.95;25.48;;;;;;;6.65;65.46;100170.75;4934065;28;98516;-67
2021/01/08 03:15:25;;;;;;;31.52;24.65;;;;;;;6.56;65.73;100160.75;4929939;28;98443;-67
2021/01/08 03:17:52;;;;;;;30.35;25.75;;;;;;;6.65;65.57;100157.81;4935858;28;96570;-67
2021/01/08 03:20:19;;;;;;;33.17;26.23;;;;;;;6.53;65.63;100155.66;4934790;28;96659;-66
2021/01/08 03:22:45;;;;;;;31.80;24.38;;;;;;;6.53;65.44;100148.72;4934304;28;99080;-66
2021/01/08 03:25:11;;;;;;;27.00;22.55;;;;;;;6.57;65.01;100160.69;4917522;28;98725;-67
2021/01/08 03:27:38;;;;;;;29.85;24.02;;;;;;;6.54;65.46;100157.34;4935701;28;96607;-66
2021/01/08 03:30:05;;;;;;;29.33;22.15;;;;;;;6.56;65.34;100160.75;4943063;28;96817;-67
2021/01/08 03:32:32;;;;;;;28.40;21.60;;;;;;;6.67;64.99;100157.78;4919237;28;98630;-67
2021/01/08 03:34:58;;;;;;;28.98;23.17;;;;;;;6.64;64.93;100163.91;4935262;28;98420;-66
2021/01/08 03:37:25;;;;;;;28.63;24.08;;;;;;;6.67;64.48;100161.22;4955117;28;97264;-66
2021/01/08 03:39:51;;;;;;;29.02;23.85;;;;;;;6.48;65.92;100157.56;4952259;28;96935;-67
2021/01/08 03:42:18;;;;;;;30.67;25.67;;;;;;;6.59;65.12;100160.63;4933679;28;98494;-66
2021/01/08 03:44:44;;;;;;;32.88;25.73;;;;;;;6.45;65.78;100155.09;4934507;28;98707;-66
2021/01/08 03:47:10;;;;;;;33.00;24.67;;;;;;;6.56;65.19;100155.56;4933249;28;96937;-66
2021/01/08 03:49:40;;;;;;;33.40;24.55;;;;;;;6.75;64.19;100151.41;4933860;28;97038;-66
2021/01/08 03:52:07;;;;;;;29.85;24.05;;;;;;;6.69;64.53;100149.03;4947043;28;97407;-66
2021/01/08 03:54:33;;;;;;;31.13;24.50;;;;;;;6.73;64.38;100153.22;4953116;28;98609;-66
2021/01/08 03:57:00;;;;;;;31.25;23.42;;;;;;;6.69;64.31;100148.19;4952913;28;96924;-66
2021/01/08 03:59:26;;;;;;;31.48;24.30;;;;;;;6.61;64.67;100153.66;4953790;28;96786;-66
2021/01/08 04:01:52;;;;;;;30.45;23.40;;;;;;;6.73;64.04;100148.03;4951858;28;98585;-66
2021/01/08 04:04:20;;;;;;;28.52;22.65;;;;;;;6.62;65.11;100144.16;4954752;28;98456;-65
2021/01/08 04:06:46;;;;;;;31.23;24.60;;;;;;;6.68;64.68;100143.91;4953782;28;96768;-66
2021/01/08 04:09:12;;;;;;;27.73;23.35;;;;;;;6.61;64.52;100140.72;4955744;28;96743;-66
2021/01/08 04:11:39;;;;;;;30.63;23.08;;;;;;;6.61;64.42;100137.28;4952126;28;98575;-66
2021/01/08 04:14:05;;;;;;;33.45;25.52;;;;;;;6.67;64.81;100145.66;4954048;28;98684;-66
2021/01/08 04:16:33;;;;;;;33.90;24.52;;;;;;;6.56;65.01;100140.88;4953661;28;96601;-66
2021/01/08 04:19:00;;;;;;;35.38;26.52;;;;;;;6.52;65.21;100139.28;4946624;28;96651;-66
2021/01/08 04:21:27;;;;;;;31.88;24.45;;;;;;;6.62;64.06;100134.63;4914947;28;98413;-66
2021/01/08 04:23:53;;;;;;;36.95;26.30;;;;;;;6.69;63.28;100127.47;4936218;28;99818;-66
2021/01/08 04:26:20;;;;;;;32.47;25.77;;;;;;;6.63;63.76;100127.69;4933716;28;96904;-65
2021/01/08 04:28:46;;;;;;;34.00;28.13;;;;;;;6.53;64.44;100135.78;4932890;28;96918;-65
2021/01/08 04:31:13;;;;;;;30.70;23.88;;;;;;;6.43;64.86;100128.38;4932704;28;98861;-66
2021/01/08 04:33:43;;;;;;;33.22;25.55;;;;;;;6.39;65.11;100121.63;4933163;28;98517;-67
2021/01/08 04:36:10;;;;;;;30.73;24.98;;;;;;;6.59;64.35;100132.13;4951894;28;96782;-68
2021/01/08 04:38:37;;;;;;;33.30;25.65;;;;;;;6.58;64.33;100133.03;4952984;28;96939;-67
2021/01/08 04:41:04;;;;;;;31.08;25.05;;;;;;;6.50;64.62;100124.72;4946755;28;98543;-67
2021/01/08 04:43:31;;;;;;;29.33;23.20;;;;;;;6.53;64.89;100127.16;4908799;28;98821;-68
2021/01/08 04:46:21;;;;;;;29.42;22.65;;;;;;;6.64;64.64;100127.63;4916565;28;97987;-67
2021/01/08 04:48:47;;;;;;;33.30;25.40;;;;;;;6.65;64.32;100129.31;4922681;28;97361;-67
2021/01/08 04:51:14;;;;;;;31.15;24.30;;;;;;;6.63;64.48;100125.94;4911369;28;98559;-67
2021/01/08 04:53:40;;;;;;;38.28;27.05;;;;;;;6.70;63.64;100124.81;4912594;28;99710;-67
2021/01/08 04:56:08;;;;;;;30.80;24.38;;;;;;;6.52;64.81;100130.66;4946176;28;99463;-67
2021/01/08 04:58:34;;;;;;;35.08;24.17;;;;;;;6.42;65.38;100131.88;4924948;28;99744;-67
2021/01/08 05:01:01;;;;;;;35.00;25.33;;;;;;;6.51;64.93;100136.75;4907695;28;98760;-67
2021/01/08 05:03:30;;;;;;;29.23;23.58;;;;;;;6.41;65.03;100123.28;4947844;28;98071;-67
2021/01/08 05:05:57;;;;;;;32.03;23.48;;;;;;;6.48;64.80;100122.16;4951515;28;96805;-67
2021/01/08 05:08:24;;;;;;;27.90;22.98;;;;;;;6.56;64.78;100127.06;4953621;28;96767;-67
2021/01/08 05:10:50;;;;;;;33.22;25.98;;;;;;;6.62;64.44;100128.59;4931881;28;98565;-67
2021/01/08 05:13:16;;;;;;;29.90;23.67;;;;;;;6.58;64.96;100138.22;4932468;28;98583;-67
2021/01/08 05:15:51;;;;;;;29.73;23.20;;;;;;;6.61;64.78;100140.72;4934602;28;96730;-67
2021/01/08 05:18:18;;;;;;;32.83;25.08;;;;;;;6.58;64.85;100143.41;4952151;28;96554;-67
2021/01/08 05:20:44;;;;;;;29.15;21.98;;;;;;;6.63;64.32;100140.66;4935296;28;98703;-67
2021/01/08 05:23:11;;;;;;;29.65;23.70;;;;;;;6.63;64.69;100130.28;4932343;28;98777;-66
2021/01/08 05:25:38;;;;;;;30.15;22.55;;;;;;;6.65;64.25;100134.50;4912815;28;96577;-66
2021/01/08 05:28:06;;;;;;;27.45;22.33;;;;;;;6.71;64.01;100131.72;4916803;28;96776;-66
2021/01/08 05:30:32;;;;;;;28.88;23.17;;;;;;;6.65;63.61;100139.69;4950772;28;98571;-65
2021/01/08 05:33:00;;;;;;;27.05;22.25;;;;;;;6.59;64.19;100139.91;4952858;28;98633;-66
2021/01/08 05:35:28;;;;;;;27.92;21.70;;;;;;;6.64;64.21;100140.59;4956518;28;96582;-66
2021/01/08 05:37:55;;;;;;;27.40;21.60;;;;;;;6.61;64.35;100138.13;4957212;28;96725;-66
2021/01/08 05:40:25;;;;;;;29.50;22.25;;;;;;;6.59;64.48;100139.06;4957437;28;98504;-66
2021/01/08 05:43:01;;;;;;;29.17;22.38;;;;;;;6.60;64.05;100131.22;4936854;28;98766;-65
2021/01/08 05:45:29;;;;;;;26.08;21.80;;;;;;;6.59;64.14;100134.72;4948119;28;97008;-66
2021/01/08 05:48:00;;;;;;;38.50;22.67;;;;;;;6.54;64.50;100140.06;4957635;28;96745;-65
2021/01/08 05:50:28;;;;;;;29.55;22.40;;;;;;;6.64;63.86;100137.16;4954681;28;98670;-65
2021/01/08 05:52:58;;;;;;;27.73;21.88;;;;;;;6.72;63.23;100140.31;4954005;28;98425;-66
2021/01/08 05:55:26;;;;;;;26.00;21.08;;;;;;;6.69;63.62;100149.03;4938171;28;96977;-66
2021/01/08 05:57:53;;;;;;;29.48;22.27;;;;;;;6.56;63.80;100151.22;4939520;28;96884;-66
2021/01/08 06:00:20;;;;;;;31.70;23.65;;;;;;;6.50;64.37;100151.44;4955508;28;98635;-65
2021/01/08 06:02:48;;;;;;;32.50;23.15;;;;;;;6.60;64.25;100157.13;4937207;28;98814;-66
2021/01/08 06:05:16;;;;;;;26.15;21.42;;;;;;;6.73;63.22;100153.22;4953329;28;96942;-66
2021/01/08 06:07:42;;;;;;;29.85;23.92;;;;;;;6.45;64.53;100157.69;4955538;28;96661;-66
2021/01/08 06:10:09;;;;;;;35.13;23.75;;;;;;;6.58;64.46;100151.16;4938725;28;98660;-67
2021/01/08 06:12:39;;;;;;;31.85;24.17;;;;;;;6.71;63.67;100164.53;4921879;28;98611;-67
2021/01/08 06:15:07;;;;;;;29.77;23.98;;;;;;;6.66;63.90;100158.66;4950022;28;96846;-67
2021/01/08 06:17:34;;;;;;;29.83;22.98;;;;;;;6.73;63.93;100158.41;4938170;28;96852;-67
2021/01/08 06:20:02;;;;;;;34.38;25.02;;;;;;;6.64;64.68;100158.72;4937057;28;98533;-66
2021/01/08 06:22:35;;;;;;;30.80;23.67;;;;;;;6.59;64.21;100157.19;4938695;28;98553;-66
2021/01/08 06:25:01;;;;;;;31.60;23.05;;;;;;;6.60;64.64;100161.47;4939887;28;96585;-66
2021/01/08 06:27:31;;;;;;;29.25;23.88;;;;;;;6.57;64.29;100158.09;4936239;28;96751;-66
2021/01/08 06:30:03;;;;;;;33.45;23.20;;;;;;;6.60;64.27;100159.72;4919087;28;98755;-65
2021/01/08 06:32:30;;;;;;;31.58;24.05;;;;;;;6.73;63.88;100167.91;4935834;28;98498;-66
2021/01/08 06:35:06;;;;;;;32.15;24.38;;;;;;;6.70;63.70;100163.69;4934607;28;97562;-67
2021/01/08 06:37:40;;;;;;;32.83;24.92;;;;;;;6.71;63.33;100160.22;4955901;28;96698;-65
2021/01/08 06:40:11;;;;;;;;;;;;;;;6.70;63.76;100153.31;4948257;28;97658;-65
2021/01/08 06:42:45;;;;;;;27.48;21.67;;;;;;;6.72;63.94;100161.91;4945050;28;98925;-69
2021/01/08 06:45:15;;;;;;;32.35;22.85;;;;;;;6.72;63.56;100172.25;4948132;28;96941;-69
2021/01/08 06:47:44;;;;;;;33.22;24.83;;;;;;;6.68;64.27;100165.50;4947224;28;96591;-69
2021/01/08 06:50:19;;;;;;;36.15;25.10;;;;;;;6.91;64.09;100171.59;4943105;28;97525;-76
2021/01/08 06:52:49;;;;;;;37.78;24.27;;;;;;;6.84;64.46;100163.19;4946737;28;98590;-76
2021/01/08 06:55:17;;;;;;;35.40;27.17;;;;;;;6.86;63.92;100168.31;4946572;28;97112;-74
2021/01/08 06:57:48;;;;;;;33.13;26.77;;;;;;;6.87;64.25;100165.69;4950905;28;96886;-64
2021/01/08 07:00:18;;;;;;;35.22;25.65;;;;;;;6.92;64.01;100173.28;4950443;28;98785;-65
2021/01/08 07:02:44;;;;;;;37.28;28.40;;;;;;;6.84;64.76;100170.97;4924414;28;98507;-65
2021/01/08 07:05:15;;;;;;;34.00;27.95;;;;;;;6.95;64.59;100162.81;4933530;28;96656;-66
2021/01/08 07:07:42;;;;;;;38.38;29.40;;;;;;;6.89;64.22;100168.22;4949917;28;97116;-66
2021/01/08 07:10:08;;;;;;;37.00;28.00;;;;;;;6.90;63.45;100165.56;4926829;28;98978;-67
2021/01/08 07:12:35;;;;;;;32.40;24.75;;;;;;;6.92;64.59;100175.88;4941016;28;98503;-67
2021/01/08 07:15:02;;;;;;;35.22;27.38;;;;;;;6.96;63.96;100169.69;4927621;28;96848;-66
2021/01/08 07:17:32;;;;;;;33.53;26.33;;;;;;;7.06;63.76;100164.09;4933177;28;96981;-69
2021/01/08 07:20:00;;;;;;;32.50;26.25;;;;;;;7.12;63.15;100170.81;4944957;28;98480;-65
2021/01/08 07:22:31;;;;;;;30.58;24.40;;;;;;;7.04;62.50;100172.84;4948285;28;98495;-65
2021/01/08 07:24:57;;;;;;;31.80;24.80;;;;;;;7.03;62.95;100169.41;4930748;28;97191;-61
2021/01/08 07:27:25;;;;;;;30.80;23.92;;;;;;;7.05;62.32;100175.38;4943626;28;97361;-65
2021/01/08 07:29:55;;;;;;;32.88;25.90;;;;;;;6.99;63.31;100174.75;4940107;28;98588;-63
2021/01/08 07:32:35;;;;;;;28.90;23.55;;;;;;;7.09;62.52;100178.72;4943546;28;97318;-66
2021/01/08 07:35:21;;;;;;;40.67;26.10;;;;;;;7.07;61.92;100188.28;4943486;28;96624;-68
2021/01/08 07:38:07;;;;;;;31.70;25.80;;;;;;;7.04;62.47;100191.84;4941936;28;96961;-67
2021/01/08 07:40:41;;;;;;;31.30;24.45;;;;;;;7.27;61.71;100195.31;4942402;28;98565;-67
2021/01/08 07:43:09;;;;;;;34.45;26.10;;;;;;;7.58;60.88;100189.81;4927968;28;98567;-67
2021/01/08 07:46:11;;;;;;;34.13;25.30;;;;;;;7.84;60.12;100189.66;4949552;28;96944;-67
2021/01/08 07:48:41;;;;;;;30.83;23.80;;;;;;;8.00;58.99;100186.44;4860982;28;97145;-67
2021/01/08 07:51:13;;;;;;;26.50;20.80;;;;;;;7.96;58.14;100193.50;4931545;28;98621;-67
2021/01/08 07:53:43;;;;;;;24.83;20.20;;;;;;;8.17;57.53;100204.78;4944912;28;98454;-67
2021/01/08 07:56:14;;;;;;;29.20;19.90;;;;;;;8.11;57.71;100199.84;4942978;28;96780;-66
2021/01/08 07:59:06;;;;;;;26.80;19.88;;;;;;;7.93;58.39;100208.34;4947614;28;97074;-69
2021/01/08 08:01:35;;;;;;;28.80;21.70;;;;;;;7.86;58.22;100206.00;4945995;28;98430;-68
2021/01/08 08:04:09;;;;;;;27.70;20.40;;;;;;;7.86;58.44;100213.78;4948579;28;98559;-64
2021/01/08 08:06:41;;;;;;;27.92;20.98;;;;;;;7.70;58.60;100224.81;4949502;28;96629;-70
2021/01/08 08:09:10;;;;;;;24.50;18.83;;;;;;;7.80;58.25;100228.75;4932530;28;97324;-64
2021/01/08 08:11:37;;;;;;;27.40;21.67;;;;;;;7.71;57.58;100232.53;4952050;28;98651;-62
2021/01/08 08:14:05;;;;;;;26.38;18.90;;;;;;;7.64;58.11;100235.44;4953157;28;98464;-63
2021/01/08 08:16:37;;;;;;;23.75;20.70;;;;;;;7.66;57.97;100239.66;4953621;28;96517;-62
2021/01/08 08:19:04;;;;;;;27.88;20.40;;;;;;;7.66;58.10;100237.06;4953677;28;96703;-64
2021/01/08 08:21:31;;;;;;;27.58;20.17;;;;;;;7.54;58.67;100240.13;4941687;28;98675;-64
2021/01/08 08:24:01;;;;;;;22.35;18.85;;;;;;;7.63;58.67;100237.19;4950082;28;98531;-64
2021/01/08 08:26:29;;;;;;;26.02;21.88;;;;;;;7.53;58.76;100235.84;4953711;28;96623;-64
2021/01/08 08:28:59;;;;;;;23.90;20.13;;;;;;;7.56;59.24;100236.59;4947890;28;96962;-62
2021/01/08 08:31:29;;;;;;;25.92;20.95;;;;;;;7.52;58.94;100247.13;4948581;28;98715;-64
2021/01/08 08:33:57;;;;;;;26.67;20.67;;;;;;;7.55;59.70;100250.44;4948937;28;98649;-61
2021/01/08 08:36:25;;;;;;;28.40;22.27;;;;;;;7.61;59.40;100257.16;4944346;28;98254;-64
2021/01/08 08:39:21;;;;;;;26.35;20.40;;;;;;;7.62;59.01;100261.47;4950776;28;96639;-64
2021/01/08 08:41:50;;;;;;;27.75;21.20;;;;;;;7.61;58.67;100252.78;4946464;28;98643;-63
2021/01/08 08:44:17;;;;;;;31.17;21.20;;;;;;;7.53;59.01;100256.59;4951232;28;98491;-64
2021/01/08 08:46:45;;;;;;;22.88;18.80;;;;;;;7.73;59.01;100255.88;4948499;28;96672;-66
2021/01/08 08:49:12;;;;;;;27.10;20.75;;;;;;;7.74;58.37;100253.19;4941370;28;96707;-66
2021/01/08 08:51:43;;;;;;;27.30;19.90;;;;;;;7.83;58.31;100263.22;4941970;28;98788;-66
2021/01/08 08:54:09;;;;;;;29.25;20.38;;;;;;;8.02;57.21;100252.97;4940902;28;98603;-66
2021/01/08 08:56:52;;;;;;;23.20;18.85;;;;;;;8.10;57.05;100258.72;4944373;28;97032;-66
2021/01/08 08:59:41;;;;;;;26.92;20.38;;;;;;;7.84;57.93;100264.91;4940473;28;96888;-65
2021/01/08 09:02:08;;;;;;;24.73;18.85;;;;;;;8.02;57.13;100272.88;4949355;28;98625;-65
2021/01/08 09:04:35;;;;;;;27.02;18.90;;;;;;;8.06;57.17;100256.28;4947150;28;98553;-66
2021/01/08 09:07:03;;;;;;;23.20;18.70;;;;;;;7.87;57.45;100269.13;4948188;28;97458;-65
2021/01/08 09:09:32;;;;;;;26.13;21.33;;;;;;;7.94;57.15;100274.97;4950558;28;96858;-63
2021/01/08 09:12:03;;;;;;;27.67;19.73;;;;;;;7.97;56.77;100267.03;4932493;28;98722;-62
2021/01/08 09:14:30;;;;;;;25.33;19.90;;;;;;;7.99;56.92;100273.00;4923039;28;98525;-65
2021/01/08 09:17:02;;;;;;;25.63;19.75;;;;;;;8.02;57.27;100272.88;4931422;28;97439;-65
2021/01/08 09:19:35;;;;;;;28.95;21.85;;;;;;;7.87;57.30;100275.16;4921199;28;96637;-65
2021/01/08 09:22:04;;;;;;;24.67;18.67;;;;;;;7.78;57.49;100282.47;4919871;28;98896;-62
2021/01/08 09:24:33;;;;;;;28.90;21.80;;;;;;;7.90;57.48;100286.34;4947807;28;98557;-62
2021/01/08 09:27:00;;;;;;;25.60;18.65;;;;;;;7.96;57.08;100288.72;4919225;28;96700;-66
2021/01/08 09:29:30;;;;;;;23.17;19.45;;;;;;;7.81;57.29;100285.78;4930429;28;98413;-67
2021/01/08 09:31:58;;;;;;;27.98;20.77;;;;;;;7.84;57.67;100290.88;4952117;28;98542;-67
2021/01/08 09:34:25;;;;;;;25.80;19.63;;;;;;;7.88;57.54;100292.47;4946514;28;97689;-67
2021/01/08 09:36:53;;;;;;;26.35;20.83;;;;;;;7.80;57.87;100299.66;4949578;28;96609;-66
2021/01/08 09:39:20;;;;;;;26.83;21.90;;;;;;;7.87;57.55;100301.13;4949277;28;96774;-67
2021/01/08 09:41:57;;;;;;;25.42;18.42;;;;;;;7.76;58.80;100302.44;4948814;28;98966;-66
2021/01/08 09:44:31;;;;;;;27.90;21.10;;;;;;;7.81;58.66;100310.91;4948411;28;98633;-66
2021/01/08 09:47:01;;;;;;;27.55;21.98;;;;;;;7.87;58.65;100306.31;4943042;28;97060;-66
2021/01/08 09:49:39;;;;;;;29.38;22.50;;;;;;;7.96;58.56;100304.28;4947415;28;97198;-67
2021/01/08 09:52:05;;;;;;;29.08;21.08;;;;;;;7.91;59.14;100309.66;4928928;28;98630;-66
2021/01/08 09:54:48;;;;;;;26.67;21.38;;;;;;;8.03;58.43;100305.72;4948526;28;99072;-67
2021/01/08 09:57:26;;;;;;;30.60;20.83;;;;;;;8.09;58.62;100300.28;4949891;28;97076;-67
2021/01/08 09:59:57;;;;;;;27.70;21.52;;;;;;;8.09;57.91;100301.13;4944941;28;97008;-66
2021/01/08 10:02:37;;;;;;;28.60;20.88;;;;;;;8.00;58.40;100306.72;4945781;28;98633;-67
2021/01/08 10:05:05;;;;;;;25.25;20.52;;;;;;;8.05;58.32;100312.56;4945350;28;98395;-66
2021/01/08 10:07:39;;;;;;;28.17;20.73;;;;;;;7.98;58.66;100300.72;4950243;28;97269;-67
2021/01/08 10:10:06;;;;;;;26.13;22.30;;;;;;;8.00;58.40;100303.28;4948079;28;97993;-66
2021/01/08 10:12:43;;;;;;;24.70;19.33;;;;;;;8.01;58.36;100302.34;4948715;28;98651;-67
2021/01/08 10:15:10;;;;;;;26.10;19.92;;;;;;;8.02;58.27;100298.84;4947954;28;98452;-65
2021/01/08 10:17:47;;;;;;;26.77;20.60;;;;;;;7.88;58.74;100302.84;4948935;28;97235;-67
2021/01/08 10:20:15;;;;;;;26.83;22.08;;;;;;;7.98;58.21;100303.31;4951044;28;97374;-67
2021/01/08 10:22:49;;;;;;;26.67;20.42;;;;;;;7.96;58.00;100309.47;4933206;28;97553;-67
2021/01/08 10:25:31;;;;;;;26.77;20.77;;;;;;;7.80;58.31;100307.47;4949484;28;98677;-67
2021/01/08 10:28:21;;;;;;;28.98;23.08;;;;;;;7.80;58.06;100304.84;4934692;28;97103;-67
2021/01/08 10:30:50;;;;;;;28.23;20.95;;;;;;;7.80;58.69;100304.84;4943551;28;96917;-68
2021/01/08 10:33:26;;;;;;;26.75;21.75;;;;;;;7.64;58.71;100301.16;4946478;28;98544;-68
2021/01/08 10:35:55;;;;;;;32.63;21.35;;;;;;;7.81;57.67;100300.50;4948564;28;98537;-67
2021/01/08 10:38:22;;;;;;;26.40;20.52;;;;;;;7.93;57.34;100299.19;4953860;28;96959;-67
2021/01/08 10:40:48;;;;;;;26.83;20.98;;;;;;;7.79;57.24;100292.78;4942557;28;99668;-67
2021/01/08 10:43:15;;;;;;;25.52;20.00;;;;;;;7.77;56.61;100294.59;4954318;28;98525;-67
2021/01/08 10:45:44;;;;;;;27.70;21.63;;;;;;;7.91;56.25;100291.47;4952708;28;99712;-67
2021/01/08 10:48:10;;;;;;;25.40;19.92;;;;;;;7.94;56.06;100295.72;4935257;28;96557;-67
2021/01/08 10:50:37;;;;;;;27.77;21.00;;;;;;;7.81;55.97;100296.16;4936224;28;96700;-67
2021/01/08 10:53:04;;;;;;;31.67;20.83;;;;;;;7.77;56.73;100293.75;4935293;28;98499;-67
2021/01/08 10:55:30;;;;;;;24.63;20.70;;;;;;;7.83;56.91;100296.97;4934975;28;98505;-67
2021/01/08 10:57:57;;;;;;;25.58;20.75;;;;;;;7.88;56.59;100292.47;4951119;28;97059;-67
2021/01/08 11:00:24;;;;;;;24.58;19.83;;;;;;;7.96;56.08;100284.34;4955347;28;96653;-67
2021/01/08 11:02:51;;;;;;;24.48;20.75;;;;;;;7.99;56.09;100283.38;4953641;28;98655;-68
2021/01/08 11:05:18;;;;;;;25.80;19.05;;;;;;;7.99;56.25;100283.38;4955152;28;98692;-67
2021/01/08 11:07:45;;;;;;;23.58;19.77;;;;;;;7.91;55.25;100275.06;4939354;28;96631;-67
2021/01/08 11:10:11;;;;;;;27.70;21.10;;;;;;;8.05;55.34;100278.81;4940684;28;96738;-68
2021/01/08 11:12:38;;;;;;;23.77;19.15;;;;;;;7.92;55.54;100271.56;4954721;28;98768;-67
2021/01/08 11:15:05;;;;;;;26.35;20.20;;;;;;;7.94;55.46;100264.56;4931059;28;98502;-67
2021/01/08 11:17:31;;;;;;;22.27;17.58;;;;;;;8.01;53.65;100258.22;4955762;28;96581;-67
2021/01/08 11:19:58;;;;;;;20.90;18.60;;;;;;;7.96;53.43;100262.75;4953127;28;96675;-67
2021/01/08 11:22:28;;;;;;;23.75;18.55;;;;;;;8.11;53.48;100256.97;4953761;28;98762;-67
2021/01/08 11:24:54;;;;;;;21.95;16.45;;;;;;;8.08;52.66;100254.47;4955485;28;98552;-67